KDUG/DUG METAR and TAF weather

Enter ICAO airport designator
Station Type Date Time Source
KDUG METAR 2018/07/21 10:56 UTC NOAA

KDUG 211056Z AUTO 15004KT CLR 20/18 A3015 RMK AO2 SLP128 T02000183 TSNO $


Station Type Date Time Source
KDUG Decoded METAR 2018/07/21 10:56 UTC NOAA

BISBEE DOUGLAS INTERNATIONAL AIRPORT , AZ, United States (KDUG) 31-28N 109-36W
Jul 21, 2018 - 06:56 AM EDT / 2018.07.21 1056 UTC
Wind: from the SSE (150 degrees) at 5 MPH (4 KT):0
Sky conditions: clear
Temperature: 68.0 F (20.0 C)
Dew Point: 64.9 F (18.3 C)
Relative Humidity: 89%
Pressure (altimeter): 30.15 in. Hg (1020 hPa)
ob: KDUG 211056Z AUTO 15004KT CLR 20/18 A3015 RMK AO2 SLP128 T02000183 TSNO
cycle: 11

Station Type Date Time Source
KDUG TAF 2018/07/21 12:36 UTC NOAA

TAF KDUG 211133Z 2112/2212 VRB04KT P6SM BKN110
FM211500 24006KT P6SM SCT120
FM212100 28010KT P6SM VCSH BKN080 BKN120
FM220100 35008KT P6SM BKN120


Example: see airport list